Time;durP1;ratioP1;P1;durP2;ratioP2;P2;SDS_P1;SDS_P2;PMS_P1;PMS_P2;Temp;Humidity;BMP_temperature;BMP_pressure;BME280_temperature;BME280_humidity;BME280_pressure;Samples;Min_cycle;Max_cycle;Signal;HPM_P1;HPM_P2
2021/12/20 00:01:39;;;;;;;22.08;9.82;;;2.20;89.20;;;;;;5027226;28;20179;-67
2021/12/20 00:04:08;;;;;;;17.00;9.30;;;2.20;88.50;;;;;;5032084;28;20221;-67
2021/12/20 00:06:38;;;;;;;15.68;9.10;;;2.20;89.80;;;;;;5031162;28;20324;-67
2021/12/20 00:09:10;;;;;;;18.55;9.25;;;2.20;89.10;;;;;;5049280;28;20336;-67
2021/12/20 00:11:39;;;;;;;20.27;10.90;;;2.20;89.60;;;;;;5042101;28;20611;-67
2021/12/20 00:14:30;;;;;;;15.75;7.90;;;2.30;89.00;;;;;;5032156;28;20195;-67
2021/12/20 00:16:59;;;;;;;18.73;10.15;;;2.30;88.30;;;;;;4961061;28;20265;-67
2021/12/20 00:19:34;;;;;;;13.32;7.55;;;2.30;88.50;;;;;;5012236;28;20200;-67
2021/12/20 00:22:07;;;;;;;15.70;10.38;;;2.30;88.60;;;;;;5019985;28;20219;-67
2021/12/20 00:24:35;;;;;;;16.45;10.63;;;2.30;88.30;;;;;;5012730;28;20702;-67
2021/12/20 00:27:07;;;;;;;18.17;9.43;;;2.30;88.10;;;;;;5029361;28;20192;-67
2021/12/20 00:29:38;;;;;;;15.45;9.50;;;2.30;88.50;;;;;;5031925;28;20646;-67
2021/12/20 00:32:18;;;;;;;16.25;9.45;;;2.30;88.00;;;;;;5029602;28;20264;-67
2021/12/20 00:35:13;;;;;;;22.20;12.90;;;2.30;88.00;;;;;;5031453;28;20272;-67
2021/12/20 00:40:37;;;;;;;16.98;9.60;;;2.30;87.80;;;;;;5019079;28;20193;-67
2021/12/20 00:43:10;;;;;;;20.52;10.70;;;2.40;88.00;;;;;;5035444;28;20258;-67
2021/12/20 00:45:40;;;;;;;18.38;10.52;;;2.40;87.60;;;;;;5032276;28;20195;-69
2021/12/20 00:48:10;;;;;;;17.48;9.52;;;2.40;87.70;;;;;;5016009;28;20203;-67
2021/12/20 00:50:40;;;;;;;19.95;9.60;;;2.40;87.90;;;;;;5028741;28;20187;-67
2021/12/20 00:53:14;;;;;;;18.65;11.00;;;2.40;87.30;;;;;;5035977;28;20187;-67
2021/12/20 00:56:03;;;;;;;16.85;11.00;;;2.40;87.40;;;;;;5022442;28;20210;-67
2021/12/20 00:58:33;;;;;;;17.70;9.75;;;2.50;87.70;;;;;;5016045;28;20193;-67
2021/12/20 01:01:10;;;;;;;19.45;10.35;;;2.60;87.40;;;;;;5030317;28;20206;-67
2021/12/20 01:03:53;;;;;;;;;;;;;;;;;;;;;
2021/12/20 01:06:27;;;;;;;16.63;9.90;;;2.60;85.80;;;;;;5017618;28;20200;-67
2021/12/20 01:08:58;;;;;;;21.15;11.10;;;2.50;86.10;;;;;;5015603;28;20674;-67
2021/12/20 01:11:34;;;;;;;16.15;10.13;;;2.50;86.70;;;;;;5032170;28;20724;-67
2021/12/20 01:14:28;;;;;;;17.33;10.82;;;2.50;86.70;;;;;;5035406;28;20565;-67
2021/12/20 01:17:13;;;;;;;16.92;9.18;;;2.60;86.10;;;;;;5009822;28;20631;-67
2021/12/20 01:19:43;;;;;;;20.48;10.80;;;2.60;86.60;;;;;;5016542;28;20192;-67
2021/12/20 01:22:11;;;;;;;16.50;9.57;;;2.70;85.90;;;;;;5025960;28;20300;-67
2021/12/20 01:24:39;;;;;;;14.85;8.68;;;2.70;84.90;;;;;;5015693;28;20639;-67
2021/12/20 01:27:07;;;;;;;13.18;8.55;;;2.70;84.90;;;;;;5015677;28;20196;-68
2021/12/20 01:29:51;;;;;;;16.90;9.02;;;2.70;84.90;;;;;;5035232;28;20742;-67
2021/12/20 01:32:24;;;;;;;15.07;8.75;;;2.70;85.00;;;;;;5033292;28;20266;-67
2021/12/20 01:35:21;;;;;;;15.73;8.70;;;2.70;85.20;;;;;;5034720;28;20600;-67
2021/12/20 01:38:19;;;;;;;17.77;10.05;;;2.70;85.00;;;;;;4959009;28;20221;-67
2021/12/20 01:40:52;;;;;;;15.20;9.73;;;2.80;84.70;;;;;;4994294;28;20188;-67
2021/12/20 01:43:44;;;;;;;;;;;;;;;;;;;;;
2021/12/20 01:46:24;;;;;;;21.73;11.57;;;2.80;84.90;;;;;;5029465;28;20192;-67
2021/12/20 01:48:59;;;;;;;20.83;9.68;;;2.80;83.70;;;;;;5014675;28;20223;-69
2021/12/20 01:51:49;;;;;;;16.42;10.15;;;2.80;83.90;;;;;;5027333;28;20191;-67
2021/12/20 01:54:28;;;;;;;17.52;9.10;;;2.80;84.50;;;;;;5017654;28;20256;-67
2021/12/20 01:57:01;;;;;;;15.30;9.65;;;2.80;84.50;;;;;;5031373;28;20191;-67
2021/12/20 01:59:49;;;;;;;18.50;9.32;;;2.90;84.60;;;;;;5034611;28;20191;-67
2021/12/20 02:02:17;;;;;;;17.83;9.30;;;2.90;84.60;;;;;;5014946;28;20307;-67
2021/12/20 02:04:47;;;;;;;15.90;11.18;;;2.90;83.90;;;;;;5014862;28;20685;-67
2021/12/20 02:07:33;;;;;;;17.38;9.05;;;2.90;84.10;;;;;;5032846;28;20269;-67
2021/12/20 02:10:00;;;;;;;18.17;9.68;;;2.80;83.80;;;;;;5034662;28;20278;-67
2021/12/20 02:12:30;;;;;;;13.88;8.55;;;2.70;83.90;;;;;;5034394;28;20278;-67
2021/12/20 02:14:58;;;;;;;17.40;9.38;;;2.70;84.30;;;;;;5034260;28;20662;-67
2021/12/20 02:17:25;;;;;;;16.77;10.00;;;2.70;85.00;;;;;;5014957;28;20651;-67
2021/12/20 02:19:52;;;;;;;21.95;12.25;;;2.70;84.90;;;;;;5014416;28;20572;-68
2021/12/20 02:22:21;;;;;;;13.77;8.27;;;2.70;85.20;;;;;;5031518;28;20507;-67
2021/12/20 02:24:48;;;;;;;14.05;7.57;;;2.70;84.30;;;;;;5034340;28;20222;-67
2021/12/20 02:27:19;;;;;;;17.95;8.98;;;2.60;85.40;;;;;;5017452;28;20192;-67
2021/12/20 02:30:01;;;;;;;14.48;8.43;;;2.50;85.30;;;;;;5014509;28;20192;-67
2021/12/20 02:38:00;;;;;;;17.35;9.75;;;2.30;85.90;;;;;;5014461;28;20207;-69
2021/12/20 02:40:27;;;;;;;15.80;9.10;;;2.40;86.00;;;;;;5020454;28;20188;-67
2021/12/20 02:42:54;;;;;;;13.95;8.68;;;2.40;85.80;;;;;;5034103;28;20598;-67
2021/12/20 02:45:23;;;;;;;18.67;8.85;;;2.40;86.00;;;;;;5030291;28;20253;-67
2021/12/20 02:47:50;;;;;;;17.05;9.25;;;2.50;86.40;;;;;;5033718;28;20279;-67
2021/12/20 02:50:18;;;;;;;13.63;7.80;;;2.50;85.40;;;;;;5020422;28;20196;-76
2021/12/20 02:52:45;;;;;;;17.73;9.85;;;2.50;85.20;;;;;;5012256;28;20204;-70
2021/12/20 02:55:16;;;;;;;15.70;8.93;;;2.60;85.20;;;;;;5019274;28;20195;-67
2021/12/20 02:57:44;;;;;;;17.65;9.27;;;2.70;84.60;;;;;;5030625;28;20199;-74
2021/12/20 03:00:13;;;;;;;17.83;10.07;;;2.70;84.40;;;;;;5019605;28;20224;-67
2021/12/20 03:02:41;;;;;;;19.02;10.02;;;2.70;84.30;;;;;;5012228;28;20666;-68
2021/12/20 03:05:10;;;;;;;18.25;9.45;;;2.70;84.20;;;;;;5022523;28;20191;-69
2021/12/20 03:07:44;;;;;;;14.02;8.05;;;2.80;84.10;;;;;;5032594;28;20199;-67
2021/12/20 03:10:12;;;;;;;14.88;8.35;;;2.90;83.30;;;;;;5022332;28;20219;-68
2021/12/20 03:12:42;;;;;;;16.00;7.90;;;2.90;82.60;;;;;;5013075;28;20258;-67
2021/12/20 03:15:15;;;;;;;14.55;8.13;;;2.80;83.40;;;;;;5021198;28;20192;-68
2021/12/20 03:17:42;;;;;;;17.80;9.38;;;2.80;83.50;;;;;;5032672;28;20196;-68
2021/12/20 03:20:10;;;;;;;16.77;8.60;;;2.80;83.30;;;;;;5024061;28;20365;-67
2021/12/20 03:22:38;;;;;;;17.08;8.52;;;2.90;83.10;;;;;;5012586;28;20200;-68
2021/12/20 03:25:06;;;;;;;14.95;8.70;;;2.90;83.00;;;;;;5019639;28;20195;-67
2021/12/20 03:27:34;;;;;;;14.45;9.40;;;2.90;82.80;;;;;;5032798;28;20237;-67
2021/12/20 03:30:04;;;;;;;14.80;8.63;;;2.90;83.20;;;;;;5022167;28;20290;-67
2021/12/20 03:32:31;;;;;;;13.63;7.70;;;2.90;83.20;;;;;;5013418;28;20232;-67
2021/12/20 03:34:59;;;;;;;16.33;8.48;;;2.90;82.30;;;;;;5025022;28;20231;-67
2021/12/20 03:37:26;;;;;;;16.77;9.48;;;2.90;82.40;;;;;;5033100;28;20599;-67
2021/12/20 03:39:56;;;;;;;13.02;8.13;;;2.70;82.60;;;;;;5021745;28;20199;-71
2021/12/20 03:42:26;;;;;;;15.05;7.90;;;2.70;83.60;;;;;;5013279;28;20188;-67
2021/12/20 03:44:54;;;;;;;14.73;8.38;;;2.70;83.80;;;;;;5022899;28;20219;-67
2021/12/20 03:47:23;;;;;;;17.13;9.52;;;2.70;83.60;;;;;;5033058;28;20202;-67
2021/12/20 03:49:50;;;;;;;14.35;8.65;;;2.70;83.50;;;;;;5023115;28;20184;-67
2021/12/20 03:52:18;;;;;;;14.68;8.18;;;2.70;84.10;;;;;;5013026;28;20200;-67
2021/12/20 03:54:45;;;;;;;14.20;8.52;;;2.70;83.50;;;;;;5026749;28;20298;-67
2021/12/20 03:57:13;;;;;;;15.27;8.88;;;2.70;83.30;;;;;;5032813;28;20242;-67
2021/12/20 03:59:40;;;;;;;15.40;7.78;;;2.70;83.60;;;;;;5020023;28;20279;-67
2021/12/20 04:02:08;;;;;;;17.98;9.30;;;2.70;83.70;;;;;;5018995;28;20222;-67
2021/12/20 04:04:37;;;;;;;14.85;8.43;;;2.70;83.70;;;;;;5032624;28;20705;-67
2021/12/20 04:07:05;;;;;;;20.65;9.02;;;2.70;83.80;;;;;;5026981;28;20674;-67
2021/12/20 04:09:33;;;;;;;12.27;7.53;;;2.80;83.30;;;;;;5012968;28;20188;-67
2021/12/20 04:12:00;;;;;;;14.30;8.00;;;2.70;83.30;;;;;;5016458;28;20586;-66
2021/12/20 04:14:28;;;;;;;18.25;9.95;;;2.70;83.40;;;;;;5031459;28;20195;-67
2021/12/20 04:16:55;;;;;;;15.13;7.97;;;2.80;83.40;;;;;;5019409;28;20202;-67
2021/12/20 04:19:23;;;;;;;14.40;9.13;;;2.70;83.40;;;;;;5013590;28;20199;-67
2021/12/20 04:21:52;;;;;;;16.63;9.32;;;2.70;83.70;;;;;;5032699;28;20525;-67
2021/12/20 04:24:20;;;;;;;14.07;8.05;;;2.80;83.00;;;;;;5031916;28;20610;-68
2021/12/20 04:26:48;;;;;;;14.90;8.80;;;2.80;82.80;;;;;;5012755;28;20196;-67
2021/12/20 04:29:15;;;;;;;14.35;8.65;;;2.80;82.70;;;;;;5012721;28;20196;-67
2021/12/20 04:31:43;;;;;;;13.10;7.70;;;2.70;82.80;;;;;;5012914;28;20246;-67
2021/12/20 04:34:10;;;;;;;14.07;7.90;;;2.70;83.20;;;;;;5012956;28;20196;-67
2021/12/20 04:36:38;;;;;;;15.63;9.55;;;2.70;83.60;;;;;;5030283;28;20235;-67
2021/12/20 04:39:12;;;;;;;16.75;9.95;;;2.70;83.30;;;;;;5032171;28;20650;-67
2021/12/20 04:41:40;;;;;;;11.35;7.57;;;2.80;82.80;;;;;;5014596;28;20214;-67
2021/12/20 04:44:07;;;;;;;12.32;7.30;;;2.80;83.30;;;;;;5012682;28;20220;-67
2021/12/20 04:46:34;;;;;;;14.45;7.82;;;2.80;83.00;;;;;;5013374;28;20192;-67
2021/12/20 04:49:02;;;;;;;13.07;8.75;;;2.80;82.80;;;;;;5012501;28;20247;-67
2021/12/20 04:51:29;;;;;;;13.88;7.55;;;2.80;83.00;;;;;;5026959;28;20183;-67
2021/12/20 04:53:56;;;;;;;11.90;8.30;;;2.90;83.20;;;;;;5032169;28;20215;-67
2021/12/20 04:56:25;;;;;;;10.85;7.65;;;3.00;83.10;;;;;;5018571;28;20184;-68
2021/12/20 04:58:52;;;;;;;11.50;7.38;;;3.00;82.60;;;;;;5012334;28;20874;-67
2021/12/20 05:01:20;;;;;;;14.93;8.50;;;3.00;82.60;;;;;;5023902;28;20195;-67
2021/12/20 05:03:49;;;;;;;11.63;7.07;;;3.10;81.80;;;;;;5032141;28;20227;-67
2021/12/20 05:06:17;;;;;;;16.58;8.07;;;3.10;81.40;;;;;;5020264;28;20202;-68
2021/12/20 05:08:49;;;;;;;14.25;8.13;;;3.00;81.60;;;;;;5012603;28;20193;-67
2021/12/20 05:11:17;;;;;;;14.10;7.82;;;3.00;81.80;;;;;;5022479;28;20194;-67
2021/12/20 05:13:46;;;;;;;15.70;8.25;;;3.00;80.80;;;;;;5032013;28;20195;-73
2021/12/20 05:16:14;;;;;;;11.68;6.65;;;3.00;81.50;;;;;;5022421;28;20271;-67
2021/12/20 05:18:43;;;;;;;12.60;8.80;;;3.00;81.80;;;;;;5012253;28;20666;-67
2021/12/20 05:21:10;;;;;;;14.02;8.65;;;3.10;81.70;;;;;;5017614;28;20180;-68
2021/12/20 05:23:37;;;;;;;13.43;8.63;;;3.10;81.70;;;;;;5018258;28;20216;-67
2021/12/20 05:26:05;;;;;;;16.05;9.63;;;3.20;81.80;;;;;;5015640;28;20188;-67
2021/12/20 05:28:32;;;;;;;13.75;8.05;;;3.20;81.70;;;;;;5023112;28;20245;-67
2021/12/20 05:31:01;;;;;;;14.57;9.13;;;3.20;81.30;;;;;;5035415;28;20532;-67
2021/12/20 05:33:29;;;;;;;15.40;8.45;;;3.20;81.00;;;;;;5028960;28;20204;-67
2021/12/20 05:35:56;;;;;;;15.73;9.55;;;3.20;81.00;;;;;;5015244;28;20242;-67
2021/12/20 05:38:24;;;;;;;16.77;10.68;;;3.20;81.00;;;;;;5033108;28;20188;-67
2021/12/20 05:40:52;;;;;;;16.30;10.65;;;3.30;81.30;;;;;;5035242;28;20192;-67
2021/12/20 05:43:19;;;;;;;13.63;8.60;;;3.30;81.10;;;;;;5018266;28;20250;-67
2021/12/20 05:45:50;;;;;;;14.70;9.65;;;3.30;81.10;;;;;;5015291;28;20302;-67
2021/12/20 05:48:19;;;;;;;13.57;9.63;;;3.40;81.10;;;;;;5030832;28;20658;-66
2021/12/20 05:50:46;;;;;;;14.10;8.63;;;3.40;80.40;;;;;;5034857;28;20202;-66
2021/12/20 05:53:13;;;;;;;14.50;10.00;;;3.40;80.30;;;;;;5020379;28;20184;-66
2021/12/20 05:55:41;;;;;;;14.93;9.57;;;3.50;80.40;;;;;;5015201;28;20193;-66
2021/12/20 05:58:09;;;;;;;13.95;8.52;;;3.50;80.50;;;;;;5016010;28;20210;-67
2021/12/20 06:00:36;;;;;;;12.27;7.43;;;3.40;80.20;;;;;;5014517;28;20250;-66
2021/12/20 06:03:04;;;;;;;14.05;8.93;;;3.40;80.20;;;;;;5029357;28;20206;-66
2021/12/20 06:05:32;;;;;;;18.42;9.93;;;3.40;80.40;;;;;;5022080;28;20216;-71
2021/12/20 06:08:00;;;;;;;15.70;9.80;;;3.40;80.10;;;;;;5014956;28;20223;-66
2021/12/20 06:10:27;;;;;;;15.15;8.40;;;3.40;80.10;;;;;;5031478;28;20561;-67
2021/12/20 06:12:58;;;;;;;13.15;8.60;;;3.40;80.00;;;;;;5033269;28;20188;-66
2021/12/20 06:15:29;;;;;;;16.17;9.77;;;3.50;79.80;;;;;;5034086;28;21087;-66
2021/12/20 06:17:58;;;;;;;13.40;9.60;;;3.40;79.70;;;;;;5039462;28;20494;-67
2021/12/20 06:20:26;;;;;;;18.20;9.95;;;3.40;79.80;;;;;;5033959;28;20561;-67
2021/12/20 06:22:55;;;;;;;17.92;12.57;;;3.30;80.00;;;;;;5033353;28;20563;-66
2021/12/20 06:25:25;;;;;;;15.10;10.45;;;3.30;80.30;;;;;;5033610;28;20219;-67
2021/12/20 06:27:53;;;;;;;14.98;9.45;;;3.30;80.00;;;;;;5033102;28;20198;-67
2021/12/20 06:30:20;;;;;;;17.48;10.60;;;3.40;80.00;;;;;;5033671;28;20191;-66
2021/12/20 06:32:48;;;;;;;18.15;10.55;;;3.30;80.10;;;;;;5033623;28;20250;-66
2021/12/20 06:35:15;;;;;;;15.15;10.15;;;3.40;80.50;;;;;;5029009;28;20578;-67
2021/12/20 06:37:47;;;;;;;16.63;10.10;;;3.40;80.30;;;;;;5032712;28;21843;-66
2021/12/20 06:40:16;;;;;;;21.05;12.75;;;3.30;80.30;;;;;;5033785;28;20217;-66
2021/12/20 06:42:44;;;;;;;17.25;10.40;;;3.30;80.10;;;;;;5044149;28;20266;-67
2021/12/20 06:45:11;;;;;;;17.83;10.38;;;3.30;79.80;;;;;;5033420;28;20247;-67
2021/12/20 06:47:39;;;;;;;22.10;12.30;;;3.20;80.40;;;;;;5033462;28;20238;-68
2021/12/20 06:50:08;;;;;;;19.50;11.57;;;3.20;80.60;;;;;;5029409;28;20650;-68
2021/12/20 06:52:35;;;;;;;19.27;12.13;;;3.10;80.60;;;;;;5026567;28;20192;-66
2021/12/20 06:55:03;;;;;;;17.00;11.00;;;3.10;80.90;;;;;;5030428;28;20197;-66
2021/12/20 06:57:32;;;;;;;19.25;12.25;;;3.10;80.80;;;;;;5033283;28;20217;-67
2021/12/20 07:00:01;;;;;;;31.95;17.98;;;3.10;80.70;;;;;;5039777;28;20720;-67
2021/12/20 07:02:28;;;;;;;30.65;18.27;;;3.00;81.10;;;;;;5029932;28;20605;-66
2021/12/20 07:04:55;;;;;;;43.40;23.95;;;3.10;81.30;;;;;;5033358;28;20234;-66
2021/12/20 07:07:22;;;;;;;23.15;14.88;;;3.10;80.90;;;;;;5032080;28;20552;-67
2021/12/20 07:09:49;;;;;;;23.65;15.77;;;3.10;80.70;;;;;;5049625;28;20587;-69
2021/12/20 07:12:16;;;;;;;48.55;28.45;;;3.20;80.90;;;;;;5033393;28;20199;-67
2021/12/20 07:14:49;;;;;;;125.75;70.72;;;3.10;80.40;;;;;;5033404;28;20278;-68
2021/12/20 07:17:20;;;;;;;53.78;31.77;;;3.10;80.60;;;;;;5033868;28;20270;-66
2021/12/20 07:19:47;;;;;;;33.58;19.63;;;3.10;80.70;;;;;;5033459;28;20290;-66
2021/12/20 07:22:14;;;;;;;21.20;13.20;;;3.10;80.80;;;;;;5032397;28;20286;-67
2021/12/20 07:24:41;;;;;;;17.88;9.88;;;3.00;81.20;;;;;;5030193;28;20305;-67
2021/12/20 07:27:10;;;;;;;15.45;9.52;;;3.00;81.40;;;;;;5033125;28;20203;-67
2021/12/20 07:29:38;;;;;;;15.27;8.75;;;3.10;81.80;;;;;;5035414;28;20181;-67
2021/12/20 07:32:08;;;;;;;20.58;11.05;;;3.20;81.50;;;;;;5033245;28;20646;-67
2021/12/20 07:34:35;;;;;;;25.58;16.23;;;3.10;81.10;;;;;;5032195;28;21060;-68
2021/12/20 07:37:02;;;;;;;63.10;38.90;;;3.20;80.70;;;;;;5031023;28;20195;-66
2021/12/20 07:39:29;;;;;;;31.65;21.85;;;3.20;80.70;;;;;;5032251;28;20605;-66
2021/12/20 07:41:56;;;;;;;26.23;20.20;;;3.20;80.60;;;;;;5029510;28;20223;-66
2021/12/20 07:44:24;;;;;;;25.08;18.27;;;3.20;80.30;;;;;;5032246;28;20281;-67
2021/12/20 07:46:51;;;;;;;20.30;12.15;;;3.10;80.60;;;;;;5027644;28;20275;-66
2021/12/20 07:49:20;;;;;;;17.38;9.45;;;3.10;81.20;;;;;;5032906;28;20211;-66
2021/12/20 07:51:51;;;;;;;14.70;8.65;;;3.10;81.20;;;;;;5028994;28;20270;-66
2021/12/20 07:54:18;;;;;;;13.95;8.15;;;3.10;81.20;;;;;;5028629;28;20286;-66
2021/12/20 07:56:45;;;;;;;11.85;8.63;;;3.10;81.10;;;;;;5029960;28;20615;-67
2021/12/20 07:59:12;;;;;;;17.65;9.93;;;3.20;81.50;;;;;;5032815;28;20223;-68
2021/12/20 08:01:39;;;;;;;15.32;9.90;;;3.20;81.60;;;;;;5028361;28;20270;-68
2021/12/20 08:04:08;;;;;;;17.42;10.13;;;3.30;81.60;;;;;;5026942;28;20196;-67
2021/12/20 08:06:37;;;;;;;15.88;9.50;;;3.40;81.00;;;;;;5026317;28;20202;-66
2021/12/20 08:09:05;;;;;;;16.40;9.90;;;3.40;80.90;;;;;;5032345;28;20205;-66
2021/12/20 08:11:34;;;;;;;14.98;9.68;;;3.40;80.40;;;;;;5026725;28;20604;-66
2021/12/20 08:14:01;;;;;;;14.13;8.95;;;3.40;79.60;;;;;;5031726;28;20626;-67
2021/12/20 08:16:30;;;;;;;16.52;9.48;;;3.50;80.50;;;;;;5032234;28;20203;-67
2021/12/20 08:18:57;;;;;;;17.75;10.05;;;3.60;80.80;;;;;;5031307;28;20187;-69
2021/12/20 08:21:25;;;;;;;14.60;8.10;;;3.80;80.80;;;;;;5028098;28;20195;-66
2021/12/20 08:23:54;;;;;;;14.45;9.73;;;3.90;80.40;;;;;;5031320;28;20210;-66
2021/12/20 08:26:21;;;;;;;15.10;9.52;;;4.00;79.30;;;;;;5031930;28;20760;-66
2021/12/20 08:28:49;;;;;;;20.02;10.23;;;4.20;79.10;;;;;;5031715;28;20282;-66
2021/12/20 08:31:18;;;;;;;12.45;7.95;;;4.30;78.30;;;;;;5032033;28;20227;-66
2021/12/20 08:33:45;;;;;;;21.73;8.18;;;4.40;78.00;;;;;;5031582;28;20183;-67
2021/12/20 08:36:13;;;;;;;15.90;9.05;;;4.50;77.80;;;;;;5031748;28;20228;-66
2021/12/20 08:38:41;;;;;;;12.70;10.57;;;4.60;76.40;;;;;;5041809;28;20188;-73
2021/12/20 08:41:12;;;;;;;13.32;9.15;;;4.70;76.20;;;;;;5031897;28;20685;-67
2021/12/20 08:43:39;;;;;;;15.70;9.93;;;4.90;75.20;;;;;;5031415;28;20261;-66
2021/12/20 08:46:09;;;;;;;14.40;9.32;;;5.00;75.10;;;;;;5030984;28;20605;-66
2021/12/20 08:48:36;;;;;;;13.38;8.15;;;5.10;73.60;;;;;;5033878;28;20546;-66
2021/12/20 08:51:04;;;;;;;15.32;9.98;;;5.20;73.30;;;;;;5039464;28;20196;-69
2021/12/20 08:53:32;;;;;;;16.35;9.20;;;5.40;73.80;;;;;;5039029;28;20725;-67
2021/12/20 08:56:00;;;;;;;16.55;9.15;;;5.70;72.00;;;;;;5035645;28;20199;-67
2021/12/20 08:58:42;;;;;;;14.88;9.23;;;5.90;70.40;;;;;;5039874;28;20225;-68
2021/12/20 09:01:10;;;;;;;17.85;10.52;;;6.00;69.80;;;;;;5045615;28;20191;-67
2021/12/20 09:03:37;;;;;;;13.57;9.95;;;6.10;69.00;;;;;;5046731;28;20638;-67
2021/12/20 09:06:05;;;;;;;13.38;9.07;;;6.20;68.70;;;;;;5045167;28;20230;-67
2021/12/20 09:08:39;;;;;;;13.73;9.35;;;6.40;68.30;;;;;;5037943;28;20203;-67
2021/12/20 09:11:06;;;;;;;13.75;8.68;;;6.70;68.60;;;;;;5040443;28;20548;-67
2021/12/20 09:13:37;;;;;;;14.32;8.15;;;6.90;66.40;;;;;;5043256;28;20218;-67
2021/12/20 09:16:06;;;;;;;13.38;7.97;;;7.20;66.70;;;;;;5038018;28;20204;-68
2021/12/20 09:18:33;;;;;;;12.55;8.05;;;7.30;65.80;;;;;;5040666;28;20209;-67
2021/12/20 09:21:01;;;;;;;13.00;8.77;;;7.10;63.30;;;;;;5039628;28;20626;-67
2021/12/20 09:23:30;;;;;;;17.38;10.07;;;7.00;63.50;;;;;;5039529;28;20207;-67
2021/12/20 09:25:57;;;;;;;14.45;8.32;;;6.90;64.10;;;;;;5041609;28;20652;-67
2021/12/20 09:28:25;;;;;;;11.73;9.40;;;6.70;63.90;;;;;;5042087;28;20594;-66
2021/12/20 09:30:54;;;;;;;11.20;7.45;;;6.60;64.30;;;;;;5043743;28;20563;-67
2021/12/20 09:33:21;;;;;;;10.50;7.72;;;6.50;65.40;;;;;;5045413;28;20211;-68
2021/12/20 09:35:50;;;;;;;10.93;8.02;;;6.50;66.00;;;;;;5045209;28;20226;-67
2021/12/20 09:38:19;;;;;;;13.50;8.25;;;6.40;64.70;;;;;;5039445;28;21073;-67
2021/12/20 09:41:13;;;;;;;10.20;7.60;;;6.30;64.70;;;;;;5043874;28;20596;-67
2021/12/20 09:43:45;;;;;;;12.20;7.30;;;6.30;65.30;;;;;;5042257;28;20636;-67
2021/12/20 09:46:14;;;;;;;14.65;8.10;;;6.30;65.70;;;;;;5041348;28;20225;-68
2021/12/20 09:48:46;;;;;;;13.88;8.48;;;6.30;66.70;;;;;;5043762;28;20234;-67
2021/12/20 09:51:15;;;;;;;12.73;7.47;;;6.50;67.50;;;;;;5043510;28;20208;-70
2021/12/20 09:53:42;;;;;;;14.00;7.88;;;6.60;66.90;;;;;;5045352;28;20195;-67
2021/12/20 09:56:10;;;;;;;16.13;9.73;;;6.80;65.10;;;;;;5046343;28;20305;-67
2021/12/20 09:58:43;;;;;;;14.15;8.85;;;6.90;65.50;;;;;;5043698;28;20207;-67
2021/12/20 10:01:12;;;;;;;11.50;7.90;;;6.90;64.60;;;;;;5046218;28;20199;-67
2021/12/20 10:03:43;;;;;;;12.63;8.30;;;7.10;65.00;;;;;;5041797;28;20195;-69
2021/12/20 10:06:10;;;;;;;11.60;8.65;;;7.30;63.60;;;;;;5041584;28;20226;-68
2021/12/20 10:08:48;;;;;;;11.45;7.97;;;7.40;62.80;;;;;;5038977;28;20191;-67
2021/12/20 10:11:21;;;;;;;13.00;8.07;;;7.80;64.40;;;;;;5042451;28;20240;-67
2021/12/20 10:13:52;;;;;;;11.60;7.55;;;8.10;60.70;;;;;;5047607;28;20241;-67
2021/12/20 10:16:22;;;;;;;10.90;7.57;;;8.20;62.10;;;;;;5038492;28;20199;-67
2021/12/20 10:18:51;;;;;;;13.02;8.40;;;8.30;61.50;;;;;;5043562;28;20655;-67
2021/12/20 10:21:20;;;;;;;14.40;7.88;;;8.20;61.10;;;;;;5044656;28;20206;-67
2021/12/20 10:23:51;;;;;;;13.50;8.93;;;8.20;59.70;;;;;;5044759;28;20235;-69
2021/12/20 10:26:20;;;;;;;13.00;8.50;;;8.20;60.00;;;;;;5043044;28;20639;-67
2021/12/20 10:28:51;;;;;;;12.75;8.07;;;8.20;60.30;;;;;;5040694;28;20253;-68
2021/12/20 10:31:20;;;;;;;14.00;9.07;;;8.40;61.10;;;;;;5047286;28;20267;-67
2021/12/20 10:33:55;;;;;;;11.90;8.93;;;8.60;61.50;;;;;;5047733;28;20244;-67
2021/12/20 10:36:22;;;;;;;15.10;7.40;;;8.70;59.60;;;;;;5035861;28;20250;-67
2021/12/20 10:38:56;;;;;;;11.52;8.80;;;8.80;59.50;;;;;;5042108;28;20202;-67
2021/12/20 10:41:32;;;;;;;10.02;7.30;;;8.70;59.00;;;;;;5044871;28;20194;-68
2021/12/20 10:44:03;;;;;;;16.25;8.30;;;8.70;59.30;;;;;;5045045;28;20252;-69
2021/12/20 10:46:33;;;;;;;11.93;9.75;;;8.80;58.50;;;;;;5036436;28;20219;-67
2021/12/20 10:49:08;;;;;;;15.65;10.38;;;8.80;58.10;;;;;;5031411;28;20199;-67
2021/12/20 10:51:39;;;;;;;11.07;8.90;;;9.00;59.10;;;;;;5032932;28;20199;-67
2021/12/20 10:54:11;;;;;;;13.38;9.82;;;9.80;60.40;;;;;;5047907;28;20202;-68
2021/12/20 10:56:47;;;;;;;12.55;8.20;;;10.30;57.30;;;;;;5039667;28;20285;-67
2021/12/20 10:59:15;;;;;;;15.90;8.27;;;10.40;55.60;;;;;;5036551;28;20207;-67
2021/12/20 11:02:32;;;;;;;11.93;9.02;;;10.20;54.60;;;;;;5034630;28;20246;-68
2021/12/20 11:04:57;;;;;;;17.52;9.77;;;10.00;53.20;;;;;;5033362;28;20184;-67
2021/12/20 11:10:12;;;;;;;11.70;9.50;;;9.60;55.30;;;;;;5044430;28;20552;-67
2021/12/20 11:12:40;;;;;;;13.05;9.35;;;9.50;55.30;;;;;;5044081;28;20195;-68
2021/12/20 11:15:14;;;;;;;12.30;8.85;;;9.40;55.30;;;;;;5037521;28;20187;-69
2021/12/20 11:17:46;;;;;;;12.43;8.32;;;9.20;55.10;;;;;;5043303;28;20195;-68
2021/12/20 11:20:21;;;;;;;20.27;11.98;;;9.20;55.80;;;;;;5038450;28;20249;-67
2021/12/20 11:23:04;;;;;;;13.82;9.55;;;9.30;57.10;;;;;;5039869;28;20552;-68
2021/12/20 11:25:31;;;;;;;12.65;8.40;;;9.70;56.80;;;;;;5037445;28;20229;-67
2021/12/20 11:27:58;;;;;;;12.50;7.82;;;9.90;56.60;;;;;;5038061;28;20245;-68
2021/12/20 11:30:27;;;;;;;10.90;8.10;;;10.10;55.00;;;;;;5039237;28;20248;-68
2021/12/20 11:32:56;;;;;;;12.77;8.45;;;10.00;53.70;;;;;;5037346;28;20199;-68
2021/12/20 11:35:26;;;;;;;10.45;8.13;;;10.20;55.70;;;;;;5043072;28;20233;-67
2021/12/20 11:37:54;;;;;;;10.60;7.85;;;10.70;55.50;;;;;;5039024;28;20203;-68
2021/12/20 11:40:22;;;;;;;12.45;7.30;;;10.90;54.40;;;;;;5033149;28;20195;-67
2021/12/20 11:42:50;;;;;;;12.25;7.80;;;10.70;53.60;;;;;;5045510;28;20346;-67
2021/12/20 11:45:18;;;;;;;14.80;7.80;;;10.50;54.10;;;;;;5038080;28;20233;-68
2021/12/20 11:47:51;;;;;;;9.50;6.60;;;10.70;54.80;;;;;;5042064;28;20206;-68
2021/12/20 11:50:21;;;;;;;9.48;6.55;;;10.70;53.20;;;;;;5041753;28;20221;-68
2021/12/20 11:52:52;;;;;;;11.70;7.13;;;10.50;52.40;;;;;;5039308;28;20194;-68
2021/12/20 11:55:22;;;;;;;14.05;7.72;;;10.50;53.30;;;;;;5039209;28;20199;-68
2021/12/20 11:57:50;;;;;;;10.48;7.88;;;10.90;53.90;;;;;;5040389;28;20194;-68
2021/12/20 12:00:29;;;;;;;12.13;6.95;;;11.90;54.40;;;;;;5040580;28;20191;-68
2021/12/20 12:02:59;;;;;;;11.52;7.25;;;13.10;51.90;;;;;;5041344;28;20603;-68
2021/12/20 12:05:41;;;;;;;10.67;7.63;;;13.70;48.80;;;;;;5040835;28;20892;-68
2021/12/20 12:08:36;;;;;;;10.38;8.15;;;13.80;46.90;;;;;;5039661;28;20960;-67
2021/12/20 12:11:32;;;;;;;12.07;6.40;;;13.40;46.80;;;;;;5043523;28;20199;-68
2021/12/20 12:17:05;;;;;;;9.90;6.37;;;12.50;46.80;;;;;;5037411;28;20777;-68
2021/12/20 12:19:59;;;;;;;12.43;6.30;;;12.10;47.10;;;;;;5043224;28;20553;-67
2021/12/20 12:22:35;;;;;;;12.55;6.75;;;11.80;48.40;;;;;;5048865;28;20253;-67
2021/12/20 12:25:11;;;;;;;9.57;6.45;;;11.60;48.40;;;;;;5043071;28;20274;-67
2021/12/20 12:27:41;;;;;;;9.70;6.70;;;11.20;48.10;;;;;;5033664;28;20231;-68
2021/12/20 12:30:30;;;;;;;11.80;6.70;;;11.00;48.60;;;;;;5033011;28;20206;-68
2021/12/20 12:33:19;;;;;;;11.07;6.68;;;10.80;49.40;;;;;;5035388;28;20207;-67
2021/12/20 12:36:00;;;;;;;9.57;6.65;;;10.60;50.20;;;;;;5036477;28;20254;-68
2021/12/20 12:38:33;;;;;;;16.50;7.70;;;10.50;51.00;;;;;;5041685;28;20245;-67
2021/12/20 12:41:19;;;;;;;12.60;7.72;;;10.30;51.00;;;;;;5038153;28;20642;-67
2021/12/20 12:43:50;;;;;;;10.95;7.10;;;10.20;51.40;;;;;;5038825;28;20559;-68
2021/12/20 12:46:46;;;;;;;15.45;8.18;;;10.00;51.70;;;;;;5041394;28;20241;-67
2021/12/20 12:49:56;;;;;;;12.88;8.18;;;9.90;53.50;;;;;;5041367;28;20188;-67
2021/12/20 12:52:45;;;;;;;13.57;8.40;;;9.80;53.80;;;;;;5041993;28;20207;-67
2021/12/20 12:55:30;;;;;;;14.10;7.35;;;9.60;53.40;;;;;;5033617;28;20192;-68
2021/12/20 12:58:20;;;;;;;13.27;7.68;;;9.30;54.50;;;;;;5036908;28;20195;-68
2021/12/20 13:00:58;;;;;;;17.55;8.32;;;9.30;54.90;;;;;;5039201;28;20198;-67
2021/12/20 13:03:28;;;;;;;14.70;7.35;;;9.20;55.00;;;;;;5032863;28;20321;-73
2021/12/20 13:05:55;;;;;;;12.48;7.80;;;9.10;55.40;;;;;;5037519;28;20214;-67
2021/12/20 13:08:26;;;;;;;12.27;8.18;;;9.10;55.70;;;;;;5035224;28;20286;-67
2021/12/20 13:10:54;;;;;;;11.07;7.35;;;9.10;55.70;;;;;;5037791;28;20202;-68
2021/12/20 13:13:41;;;;;;;14.05;7.68;;;9.20;55.50;;;;;;5039205;28;20290;-67
2021/12/20 13:16:15;;;;;;;14.27;7.93;;;9.10;55.20;;;;;;5035843;28;20222;-67
2021/12/20 13:18:45;;;;;;;14.00;8.02;;;9.00;55.10;;;;;;5039671;28;20206;-68
2021/12/20 13:21:19;;;;;;;13.10;7.43;;;8.90;55.80;;;;;;5044697;28;20192;-67